sensor_id;sensor_type;location;lat;lon;timestamp;P1;durP1;ratioP1;P2;durP2;ratioP2
45322;SDS011;31382;50.200;8.674;2023-04-06T00:01:49;12.13;;;5.22;;
45322;SDS011;31382;50.200;8.674;2023-04-06T00:06:51;8.45;;;4.20;;
45322;SDS011;31382;50.200;8.674;2023-04-06T00:11:52;8.50;;;3.80;;
45322;SDS011;31382;50.200;8.674;2023-04-06T00:16:54;6.32;;;2.97;;
45322;SDS011;31382;50.200;8.674;2023-04-06T00:21:56;5.78;;;3.13;;
45322;SDS011;31382;50.200;8.674;2023-04-06T00:26:58;6.28;;;2.95;;
45322;SDS011;31382;50.200;8.674;2023-04-06T00:31:59;7.03;;;3.72;;
45322;SDS011;31382;50.200;8.674;2023-04-06T00:37:01;5.60;;;3.17;;
45322;SDS011;31382;50.200;8.674;2023-04-06T00:42:05;5.47;;;3.00;;
45322;SDS011;31382;50.200;8.674;2023-04-06T00:47:11;9.60;;;4.50;;
45322;SDS011;31382;50.200;8.674;2023-04-06T00:52:13;7.03;;;3.50;;
45322;SDS011;31382;50.200;8.674;2023-04-06T00:57:15;3.88;;;2.60;;
45322;SDS011;31382;50.200;8.674;2023-04-06T01:02:17;5.00;;;2.60;;
45322;SDS011;31382;50.200;8.674;2023-04-06T01:07:19;5.53;;;3.05;;
45322;SDS011;31382;50.200;8.674;2023-04-06T01:12:21;6.22;;;3.15;;
45322;SDS011;31382;50.200;8.674;2023-04-06T01:17:22;7.07;;;4.53;;
45322;SDS011;31382;50.200;8.674;2023-04-06T01:22:24;8.68;;;4.97;;
45322;SDS011;31382;50.200;8.674;2023-04-06T01:27:25;18.38;;;7.57;;
45322;SDS011;31382;50.200;8.674;2023-04-06T01:32:28;26.35;;;10.55;;
45322;SDS011;31382;50.200;8.674;2023-04-06T01:37:30;13.88;;;7.07;;
45322;SDS011;31382;50.200;8.674;2023-04-06T01:42:33;17.27;;;7.50;;
45322;SDS011;31382;50.200;8.674;2023-04-06T01:47:34;8.10;;;4.63;;
45322;SDS011;31382;50.200;8.674;2023-04-06T01:52:37;7.13;;;3.53;;
45322;SDS011;31382;50.200;8.674;2023-04-06T01:57:39;4.43;;;2.90;;
45322;SDS011;31382;50.200;8.674;2023-04-06T02:02:40;7.38;;;3.83;;
45322;SDS011;31382;50.200;8.674;2023-04-06T02:07:41;6.70;;;3.17;;
45322;SDS011;31382;50.200;8.674;2023-04-06T02:12:43;4.65;;;2.92;;
45322;SDS011;31382;50.200;8.674;2023-04-06T02:17:44;8.25;;;3.65;;
45322;SDS011;31382;50.200;8.674;2023-04-06T02:22:46;5.65;;;3.03;;
45322;SDS011;31382;50.200;8.674;2023-04-06T02:27:48;6.15;;;3.55;;
45322;SDS011;31382;50.200;8.674;2023-04-06T02:32:49;7.07;;;3.55;;
45322;SDS011;31382;50.200;8.674;2023-04-06T02:37:51;9.48;;;3.95;;
45322;SDS011;31382;50.200;8.674;2023-04-06T02:42:52;6.63;;;3.35;;
45322;SDS011;31382;50.200;8.674;2023-04-06T02:47:54;5.70;;;3.30;;
45322;SDS011;31382;50.200;8.674;2023-04-06T02:52:55;5.15;;;3.28;;
45322;SDS011;31382;50.200;8.674;2023-04-06T02:57:57;6.38;;;3.72;;
45322;SDS011;31382;50.200;8.674;2023-04-06T03:02:58;6.18;;;2.65;;
45322;SDS011;31382;50.200;8.674;2023-04-06T03:07:59;5.88;;;3.35;;
45322;SDS011;31382;50.200;8.674;2023-04-06T03:13:01;8.10;;;3.33;;
45322;SDS011;31382;50.200;8.674;2023-04-06T03:18:02;7.40;;;2.40;;
45322;SDS011;31382;50.200;8.674;2023-04-06T03:23:04;7.70;;;3.58;;
45322;SDS011;31382;50.200;8.674;2023-04-06T03:28:05;6.38;;;4.18;;
45322;SDS011;31382;50.200;8.674;2023-04-06T03:33:07;6.18;;;2.97;;
45322;SDS011;31382;50.200;8.674;2023-04-06T03:38:08;4.10;;;2.75;;
45322;SDS011;31382;50.200;8.674;2023-04-06T03:43:09;6.72;;;3.30;;
45322;SDS011;31382;50.200;8.674;2023-04-06T03:48:11;6.10;;;3.20;;
45322;SDS011;31382;50.200;8.674;2023-04-06T03:53:12;5.22;;;3.10;;
45322;SDS011;31382;50.200;8.674;2023-04-06T03:58:14;6.13;;;2.80;;
45322;SDS011;31382;50.200;8.674;2023-04-06T04:03:15;8.25;;;3.53;;
45322;SDS011;31382;50.200;8.674;2023-04-06T04:08:17;8.48;;;3.60;;
45322;SDS011;31382;50.200;8.674;2023-04-06T04:13:18;7.43;;;4.57;;
45322;SDS011;31382;50.200;8.674;2023-04-06T04:18:20;8.07;;;3.90;;
45322;SDS011;31382;50.200;8.674;2023-04-06T04:23:22;8.85;;;3.75;;
45322;SDS011;31382;50.200;8.674;2023-04-06T04:28:23;7.38;;;3.35;;
45322;SDS011;31382;50.200;8.674;2023-04-06T04:33:24;5.30;;;3.35;;
45322;SDS011;31382;50.200;8.674;2023-04-06T04:38:26;8.65;;;4.00;;
45322;SDS011;31382;50.200;8.674;2023-04-06T04:43:27;5.75;;;3.55;;
45322;SDS011;31382;50.200;8.674;2023-04-06T04:48:31;8.50;;;4.25;;
45322;SDS011;31382;50.200;8.674;2023-04-06T04:53:32;6.20;;;3.78;;
45322;SDS011;31382;50.200;8.674;2023-04-06T04:58:34;7.90;;;3.90;;
45322;SDS011;31382;50.200;8.674;2023-04-06T05:03:36;10.15;;;4.78;;
45322;SDS011;31382;50.200;8.674;2023-04-06T05:08:40;9.13;;;4.70;;
45322;SDS011;31382;50.200;8.674;2023-04-06T05:13:42;9.75;;;4.60;;
45322;SDS011;31382;50.200;8.674;2023-04-06T05:18:43;7.97;;;4.72;;
45322;SDS011;31382;50.200;8.674;2023-04-06T05:23:45;10.65;;;6.90;;
45322;SDS011;31382;50.200;8.674;2023-04-06T05:28:46;11.02;;;6.22;;
45322;SDS011;31382;50.200;8.674;2023-04-06T05:33:47;8.18;;;4.72;;
45322;SDS011;31382;50.200;8.674;2023-04-06T05:38:49;11.73;;;5.65;;
45322;SDS011;31382;50.200;8.674;2023-04-06T05:43:53;10.98;;;5.53;;
45322;SDS011;31382;50.200;8.674;2023-04-06T05:48:55;15.85;;;5.47;;
45322;SDS011;31382;50.200;8.674;2023-04-06T05:53:57;10.18;;;6.25;;
45322;SDS011;31382;50.200;8.674;2023-04-06T05:58:59;11.68;;;5.63;;
45322;SDS011;31382;50.200;8.674;2023-04-06T06:04:01;14.75;;;6.55;;
45322;SDS011;31382;50.200;8.674;2023-04-06T06:09:03;11.85;;;6.68;;
45322;SDS011;31382;50.200;8.674;2023-04-06T06:14:04;12.13;;;6.30;;
45322;SDS011;31382;50.200;8.674;2023-04-06T06:19:06;11.60;;;6.57;;
45322;SDS011;31382;50.200;8.674;2023-04-06T06:24:08;9.82;;;6.55;;
45322;SDS011;31382;50.200;8.674;2023-04-06T06:29:10;9.35;;;5.68;;
45322;SDS011;31382;50.200;8.674;2023-04-06T06:34:12;12.48;;;6.82;;
45322;SDS011;31382;50.200;8.674;2023-04-06T06:39:14;11.70;;;6.22;;
45322;SDS011;31382;50.200;8.674;2023-04-06T06:44:15;12.15;;;6.82;;
45322;SDS011;31382;50.200;8.674;2023-04-06T06:49:17;9.80;;;6.93;;
45322;SDS011;31382;50.200;8.674;2023-04-06T06:54:19;13.20;;;7.47;;
45322;SDS011;31382;50.200;8.674;2023-04-06T06:59:21;11.52;;;7.47;;
45322;SDS011;31382;50.200;8.674;2023-04-06T07:04:23;11.02;;;7.25;;
45322;SDS011;31382;50.200;8.674;2023-04-06T07:09:24;15.63;;;7.68;;
45322;SDS011;31382;50.200;8.674;2023-04-06T07:14:27;15.13;;;7.60;;
45322;SDS011;31382;50.200;8.674;2023-04-06T07:19:29;12.65;;;6.97;;
45322;SDS011;31382;50.200;8.674;2023-04-06T07:24:30;15.50;;;7.25;;
45322;SDS011;31382;50.200;8.674;2023-04-06T07:29:31;13.85;;;7.05;;
45322;SDS011;31382;50.200;8.674;2023-04-06T07:34:33;14.68;;;8.25;;
45322;SDS011;31382;50.200;8.674;2023-04-06T07:39:34;25.73;;;8.48;;
45322;SDS011;31382;50.200;8.674;2023-04-06T07:44:36;9.82;;;7.28;;
45322;SDS011;31382;50.200;8.674;2023-04-06T07:49:37;13.80;;;7.20;;
45322;SDS011;31382;50.200;8.674;2023-04-06T07:54:40;13.70;;;7.53;;
45322;SDS011;31382;50.200;8.674;2023-04-06T07:59:42;16.73;;;8.20;;
45322;SDS011;31382;50.200;8.674;2023-04-06T08:04:44;16.17;;;8.48;;
45322;SDS011;31382;50.200;8.674;2023-04-06T08:09:46;13.88;;;8.57;;
45322;SDS011;31382;50.200;8.674;2023-04-06T08:14:47;15.77;;;8.23;;
45322;SDS011;31382;50.200;8.674;2023-04-06T08:19:49;13.65;;;8.05;;
45322;SDS011;31382;50.200;8.674;2023-04-06T08:24:50;14.35;;;8.25;;
45322;SDS011;31382;50.200;8.674;2023-04-06T08:29:52;15.30;;;8.27;;
45322;SDS011;31382;50.200;8.674;2023-04-06T08:34:54;9.98;;;7.32;;
45322;SDS011;31382;50.200;8.674;2023-04-06T08:39:56;11.43;;;7.60;;
45322;SDS011;31382;50.200;8.674;2023-04-06T08:44:59;11.30;;;6.85;;
45322;SDS011;31382;50.200;8.674;2023-04-06T08:50:02;13.32;;;7.82;;
45322;SDS011;31382;50.200;8.674;2023-04-06T08:55:05;13.52;;;7.30;;
45322;SDS011;31382;50.200;8.674;2023-04-06T09:00:07;12.02;;;8.32;;
45322;SDS011;31382;50.200;8.674;2023-04-06T09:05:11;11.70;;;7.55;;
45322;SDS011;31382;50.200;8.674;2023-04-06T09:10:13;10.52;;;7.03;;
45322;SDS011;31382;50.200;8.674;2023-04-06T09:15:19;10.52;;;6.40;;
45322;SDS011;31382;50.200;8.674;2023-04-06T09:20:25;13.15;;;7.95;;
45322;SDS011;31382;50.200;8.674;2023-04-06T09:25:29;12.05;;;7.43;;
45322;SDS011;31382;50.200;8.674;2023-04-06T09:30:32;9.77;;;6.28;;
45322;SDS011;31382;50.200;8.674;2023-04-06T09:35:33;10.82;;;7.20;;
45322;SDS011;31382;50.200;8.674;2023-04-06T09:40:35;12.88;;;7.10;;
45322;SDS011;31382;50.200;8.674;2023-04-06T09:45:36;13.50;;;6.60;;
45322;SDS011;31382;50.200;8.674;2023-04-06T09:50:38;12.05;;;6.90;;
45322;SDS011;31382;50.200;8.674;2023-04-06T09:55:40;12.38;;;6.38;;
45322;SDS011;31382;50.200;8.674;2023-04-06T10:00:47;12.05;;;6.53;;
45322;SDS011;31382;50.200;8.674;2023-04-06T10:06:03;12.20;;;6.43;;
45322;SDS011;31382;50.200;8.674;2023-04-06T10:11:07;11.77;;;6.65;;
45322;SDS011;31382;50.200;8.674;2023-04-06T10:16:10;12.05;;;6.13;;
45322;SDS011;31382;50.200;8.674;2023-04-06T10:21:16;12.88;;;6.53;;
45322;SDS011;31382;50.200;8.674;2023-04-06T10:26:22;10.90;;;6.10;;
45322;SDS011;31382;50.200;8.674;2023-04-06T10:31:24;11.45;;;6.20;;
45322;SDS011;31382;50.200;8.674;2023-04-06T10:36:28;12.07;;;6.50;;
45322;SDS011;31382;50.200;8.674;2023-04-06T10:41:44;11.02;;;6.25;;
45322;SDS011;31382;50.200;8.674;2023-04-06T10:46:57;12.45;;;6.95;;
45322;SDS011;31382;50.200;8.674;2023-04-06T10:52:04;10.95;;;6.63;;
45322;SDS011;31382;50.200;8.674;2023-04-06T10:57:07;14.13;;;6.60;;
45322;SDS011;31382;50.200;8.674;2023-04-06T11:02:08;10.02;;;5.57;;
45322;SDS011;31382;50.200;8.674;2023-04-06T11:07:09;15.38;;;7.30;;
45322;SDS011;31382;50.200;8.674;2023-04-06T11:12:20;12.93;;;6.65;;
45322;SDS011;31382;50.200;8.674;2023-04-06T11:17:26;9.82;;;5.82;;
45322;SDS011;31382;50.200;8.674;2023-04-06T11:22:28;10.68;;;6.15;;
45322;SDS011;31382;50.200;8.674;2023-04-06T11:27:29;10.75;;;6.43;;
45322;SDS011;31382;50.200;8.674;2023-04-06T11:32:39;13.48;;;6.65;;
45322;SDS011;31382;50.200;8.674;2023-04-06T11:37:42;12.23;;;6.80;;
45322;SDS011;31382;50.200;8.674;2023-04-06T11:42:44;16.15;;;7.38;;
45322;SDS011;31382;50.200;8.674;2023-04-06T11:47:56;12.52;;;6.53;;
45322;SDS011;31382;50.200;8.674;2023-04-06T11:53:01;12.48;;;6.70;;
45322;SDS011;31382;50.200;8.674;2023-04-06T11:58:03;18.73;;;6.57;;
45322;SDS011;31382;50.200;8.674;2023-04-06T12:03:05;13.85;;;6.65;;
45322;SDS011;31382;50.200;8.674;2023-04-06T12:08:07;13.68;;;6.75;;
45322;SDS011;31382;50.200;8.674;2023-04-06T12:13:08;13.60;;;7.65;;
45322;SDS011;31382;50.200;8.674;2023-04-06T12:18:10;12.18;;;7.47;;
45322;SDS011;31382;50.200;8.674;2023-04-06T12:23:11;13.60;;;6.80;;
45322;SDS011;31382;50.200;8.674;2023-04-06T12:28:12;14.05;;;7.05;;
45322;SDS011;31382;50.200;8.674;2023-04-06T12:33:14;20.88;;;7.82;;
45322;SDS011;31382;50.200;8.674;2023-04-06T12:38:16;24.48;;;7.60;;
45322;SDS011;31382;50.200;8.674;2023-04-06T12:43:18;14.50;;;7.22;;
45322;SDS011;31382;50.200;8.674;2023-04-06T12:48:19;11.68;;;6.65;;
45322;SDS011;31382;50.200;8.674;2023-04-06T12:53:20;16.35;;;7.18;;
45322;SDS011;31382;50.200;8.674;2023-04-06T12:58:22;14.02;;;6.85;;
45322;SDS011;31382;50.200;8.674;2023-04-06T13:03:24;14.27;;;7.68;;
45322;SDS011;31382;50.200;8.674;2023-04-06T13:08:25;13.45;;;7.20;;
45322;SDS011;31382;50.200;8.674;2023-04-06T13:13:28;9.43;;;5.97;;
45322;SDS011;31382;50.200;8.674;2023-04-06T13:18:30;11.52;;;5.68;;
45322;SDS011;31382;50.200;8.674;2023-04-06T13:23:33;11.85;;;5.80;;
45322;SDS011;31382;50.200;8.674;2023-04-06T13:28:36;13.90;;;6.65;;
45322;SDS011;31382;50.200;8.674;2023-04-06T13:33:39;13.57;;;6.15;;
45322;SDS011;31382;50.200;8.674;2023-04-06T13:38:42;9.15;;;4.55;;
45322;SDS011;31382;50.200;8.674;2023-04-06T13:43:43;8.70;;;4.88;;
45322;SDS011;31382;50.200;8.674;2023-04-06T13:48:44;11.38;;;5.65;;
45322;SDS011;31382;50.200;8.674;2023-04-06T13:53:46;9.38;;;4.88;;
45322;SDS011;31382;50.200;8.674;2023-04-06T13:58:47;9.18;;;4.90;;
45322;SDS011;31382;50.200;8.674;2023-04-06T14:03:49;10.25;;;5.13;;
45322;SDS011;31382;50.200;8.674;2023-04-06T14:08:50;10.05;;;5.65;;
45322;SDS011;31382;50.200;8.674;2023-04-06T14:13:52;12.85;;;5.95;;
45322;SDS011;31382;50.200;8.674;2023-04-06T14:18:58;7.57;;;5.15;;
45322;SDS011;31382;50.200;8.674;2023-04-06T14:23:59;8.32;;;5.57;;
45322;SDS011;31382;50.200;8.674;2023-04-06T14:29:01;10.60;;;5.88;;
45322;SDS011;31382;50.200;8.674;2023-04-06T14:34:03;8.20;;;4.80;;
45322;SDS011;31382;50.200;8.674;2023-04-06T14:39:05;8.65;;;4.82;;
45322;SDS011;31382;50.200;8.674;2023-04-06T14:44:07;9.20;;;4.60;;
45322;SDS011;31382;50.200;8.674;2023-04-06T14:49:13;7.60;;;4.57;;
45322;SDS011;31382;50.200;8.674;2023-04-06T14:54:17;8.93;;;4.75;;
45322;SDS011;31382;50.200;8.674;2023-04-06T14:59:18;5.07;;;3.53;;
45322;SDS011;31382;50.200;8.674;2023-04-06T15:04:20;10.55;;;4.85;;
45322;SDS011;31382;50.200;8.674;2023-04-06T15:09:21;7.50;;;4.00;;
45322;SDS011;31382;50.200;8.674;2023-04-06T15:14:23;7.60;;;4.30;;
45322;SDS011;31382;50.200;8.674;2023-04-06T15:19:24;7.40;;;4.32;;
45322;SDS011;31382;50.200;8.674;2023-04-06T15:24:26;5.65;;;3.60;;
45322;SDS011;31382;50.200;8.674;2023-04-06T15:29:27;8.88;;;4.13;;
45322;SDS011;31382;50.200;8.674;2023-04-06T15:34:30;6.18;;;3.85;;
45322;SDS011;31382;50.200;8.674;2023-04-06T15:39:33;8.15;;;4.57;;
45322;SDS011;31382;50.200;8.674;2023-04-06T15:44:35;10.63;;;4.30;;
45322;SDS011;31382;50.200;8.674;2023-04-06T15:49:36;8.55;;;4.30;;
45322;SDS011;31382;50.200;8.674;2023-04-06T15:54:38;7.93;;;4.07;;
45322;SDS011;31382;50.200;8.674;2023-04-06T15:59:41;5.63;;;3.25;;
45322;SDS011;31382;50.200;8.674;2023-04-06T16:04:42;8.70;;;3.85;;
45322;SDS011;31382;50.200;8.674;2023-04-06T16:09:44;8.27;;;4.88;;
45322;SDS011;31382;50.200;8.674;2023-04-06T16:14:45;7.47;;;3.88;;
45322;SDS011;31382;50.200;8.674;2023-04-06T16:19:47;6.65;;;3.90;;
45322;SDS011;31382;50.200;8.674;2023-04-06T16:24:49;6.57;;;2.88;;
45322;SDS011;31382;50.200;8.674;2023-04-06T16:29:51;3.85;;;3.00;;
45322;SDS011;31382;50.200;8.674;2023-04-06T16:34:52;5.18;;;2.58;;
45322;SDS011;31382;50.200;8.674;2023-04-06T16:39:54;6.05;;;2.35;;
45322;SDS011;31382;50.200;8.674;2023-04-06T16:44:55;8.25;;;2.42;;
45322;SDS011;31382;50.200;8.674;2023-04-06T16:49:56;3.60;;;2.38;;
45322;SDS011;31382;50.200;8.674;2023-04-06T16:55:18;6.82;;;2.83;;
45322;SDS011;31382;50.200;8.674;2023-04-06T17:00:20;8.00;;;2.47;;
45322;SDS011;31382;50.200;8.674;2023-04-06T17:05:21;6.15;;;2.72;;
45322;SDS011;31382;50.200;8.674;2023-04-06T17:10:26;6.55;;;2.70;;
45322;SDS011;31382;50.200;8.674;2023-04-06T17:15:41;6.10;;;3.92;;
45322;SDS011;31382;50.200;8.674;2023-04-06T17:20:43;6.32;;;3.65;;
45322;SDS011;31382;50.200;8.674;2023-04-06T17:25:46;6.35;;;2.75;;
45322;SDS011;31382;50.200;8.674;2023-04-06T17:30:48;4.75;;;2.67;;
45322;SDS011;31382;50.200;8.674;2023-04-06T17:35:49;4.32;;;2.45;;
45322;SDS011;31382;50.200;8.674;2023-04-06T17:40:51;5.90;;;2.20;;
45322;SDS011;31382;50.200;8.674;2023-04-06T17:45:52;4.90;;;2.10;;
45322;SDS011;31382;50.200;8.674;2023-04-06T17:50:54;3.03;;;1.90;;
45322;SDS011;31382;50.200;8.674;2023-04-06T17:55:55;6.55;;;1.90;;
45322;SDS011;31382;50.200;8.674;2023-04-06T18:00:57;5.53;;;2.33;;
45322;SDS011;31382;50.200;8.674;2023-04-06T18:06:08;9.50;;;3.92;;
45322;SDS011;31382;50.200;8.674;2023-04-06T18:11:16;3.15;;;1.48;;
45322;SDS011;31382;50.200;8.674;2023-04-06T18:16:18;2.17;;;1.10;;
45322;SDS011;31382;50.200;8.674;2023-04-06T18:21:21;4.53;;;1.55;;
45322;SDS011;31382;50.200;8.674;2023-04-06T18:26:22;3.80;;;1.77;;
45322;SDS011;31382;50.200;8.674;2023-04-06T18:31:25;3.33;;;1.98;;
45322;SDS011;31382;50.200;8.674;2023-04-06T18:36:26;4.63;;;2.22;;
45322;SDS011;31382;50.200;8.674;2023-04-06T18:41:28;5.00;;;2.25;;
45322;SDS011;31382;50.200;8.674;2023-04-06T18:46:29;3.58;;;2.05;;
45322;SDS011;31382;50.200;8.674;2023-04-06T18:51:31;5.00;;;2.60;;
45322;SDS011;31382;50.200;8.674;2023-04-06T18:56:32;5.95;;;2.80;;
45322;SDS011;31382;50.200;8.674;2023-04-06T19:01:34;7.72;;;4.53;;
45322;SDS011;31382;50.200;8.674;2023-04-06T19:06:35;6.25;;;3.28;;
45322;SDS011;31382;50.200;8.674;2023-04-06T19:11:37;4.43;;;2.75;;
45322;SDS011;31382;50.200;8.674;2023-04-06T19:16:40;6.22;;;3.05;;
45322;SDS011;31382;50.200;8.674;2023-04-06T19:21:42;6.28;;;3.45;;
45322;SDS011;31382;50.200;8.674;2023-04-06T19:32:00;6.57;;;3.65;;
45322;SDS011;31382;50.200;8.674;2023-04-06T19:37:02;7.30;;;2.88;;
45322;SDS011;31382;50.200;8.674;2023-04-06T19:42:04;7.07;;;3.47;;
45322;SDS011;31382;50.200;8.674;2023-04-06T19:47:06;6.43;;;3.50;;
45322;SDS011;31382;50.200;8.674;2023-04-06T19:52:07;9.80;;;5.03;;
45322;SDS011;31382;50.200;8.674;2023-04-06T19:57:10;6.90;;;4.00;;
45322;SDS011;31382;50.200;8.674;2023-04-06T20:02:11;6.38;;;4.10;;
45322;SDS011;31382;50.200;8.674;2023-04-06T20:07:13;7.53;;;4.45;;
45322;SDS011;31382;50.200;8.674;2023-04-06T20:12:14;6.28;;;4.57;;
45322;SDS011;31382;50.200;8.674;2023-04-06T20:17:15;8.55;;;4.43;;
45322;SDS011;31382;50.200;8.674;2023-04-06T20:22:17;7.82;;;5.47;;
45322;SDS011;31382;50.200;8.674;2023-04-06T20:27:18;9.27;;;4.82;;
45322;SDS011;31382;50.200;8.674;2023-04-06T20:32:20;11.02;;;4.88;;
45322;SDS011;31382;50.200;8.674;2023-04-06T20:37:22;8.80;;;5.43;;
45322;SDS011;31382;50.200;8.674;2023-04-06T20:42:24;9.15;;;5.63;;
45322;SDS011;31382;50.200;8.674;2023-04-06T20:47:25;9.77;;;5.45;;
45322;SDS011;31382;50.200;8.674;2023-04-06T20:52:27;9.68;;;6.43;;
45322;SDS011;31382;50.200;8.674;2023-04-06T20:57:28;10.43;;;6.30;;
45322;SDS011;31382;50.200;8.674;2023-04-06T21:02:30;10.07;;;6.47;;
45322;SDS011;31382;50.200;8.674;2023-04-06T21:07:33;12.88;;;6.65;;
45322;SDS011;31382;50.200;8.674;2023-04-06T21:12:34;13.05;;;6.30;;
45322;SDS011;31382;50.200;8.674;2023-04-06T21:17:36;10.75;;;6.93;;
45322;SDS011;31382;50.200;8.674;2023-04-06T21:22:37;12.57;;;6.65;;
45322;SDS011;31382;50.200;8.674;2023-04-06T21:27:39;11.68;;;6.97;;
45322;SDS011;31382;50.200;8.674;2023-04-06T21:32:40;16.55;;;8.38;;
45322;SDS011;31382;50.200;8.674;2023-04-06T21:42:58;12.70;;;7.22;;
45322;SDS011;31382;50.200;8.674;2023-04-06T21:48:01;16.42;;;7.88;;
45322;SDS011;31382;50.200;8.674;2023-04-06T21:53:03;12.77;;;7.68;;
45322;SDS011;31382;50.200;8.674;2023-04-06T21:58:06;17.02;;;8.70;;
45322;SDS011;31382;50.200;8.674;2023-04-06T22:03:08;15.45;;;8.73;;
45322;SDS011;31382;50.200;8.674;2023-04-06T22:08:11;14.10;;;8.48;;
45322;SDS011;31382;50.200;8.674;2023-04-06T22:13:26;16.40;;;9.20;;
45322;SDS011;31382;50.200;8.674;2023-04-06T22:35:23;19.55;;;10.57;;
45322;SDS011;31382;50.200;8.674;2023-04-06T22:40:27;18.27;;;10.88;;
45322;SDS011;31382;50.200;8.674;2023-04-06T22:45:32;21.13;;;11.82;;
45322;SDS011;31382;50.200;8.674;2023-04-06T22:50:34;25.48;;;12.10;;
45322;SDS011;31382;50.200;8.674;2023-04-06T22:55:40;21.92;;;11.45;;
45322;SDS011;31382;50.200;8.674;2023-04-06T23:00:41;22.42;;;11.50;;
45322;SDS011;31382;50.200;8.674;2023-04-06T23:05:43;20.05;;;11.70;;
45322;SDS011;31382;50.200;8.674;2023-04-06T23:10:46;21.73;;;12.38;;
45322;SDS011;31382;50.200;8.674;2023-04-06T23:15:48;28.42;;;13.20;;
45322;SDS011;31382;50.200;8.674;2023-04-06T23:20:50;26.85;;;13.57;;
45322;SDS011;31382;50.200;8.674;2023-04-06T23:25:52;30.73;;;15.23;;
45322;SDS011;31382;50.200;8.674;2023-04-06T23:30:54;23.27;;;13.15;;
45322;SDS011;31382;50.200;8.674;2023-04-06T23:35:55;29.80;;;14.25;;
45322;SDS011;31382;50.200;8.674;2023-04-06T23:40:57;26.27;;;14.68;;
45322;SDS011;31382;50.200;8.674;2023-04-06T23:45:58;28.13;;;14.63;;
45322;SDS011;31382;50.200;8.674;2023-04-06T23:51:00;28.75;;;14.27;;
45322;SDS011;31382;50.200;8.674;2023-04-06T23:56:01;29.83;;;15.25;;
